createdAt,value
2023-06-01T00:01:47.497Z,3.83
2023-06-01T00:11:49.136Z,4.30
2023-06-01T00:21:50.738Z,4.70
2023-06-01T00:31:52.283Z,3.15
2023-06-01T00:41:54.857Z,4.47
2023-06-01T00:51:57.954Z,4.70
2023-06-01T01:01:59.441Z,4.32
2023-06-01T01:12:08.740Z,4.43
2023-06-01T01:22:16.061Z,4.43
2023-06-01T01:32:18.037Z,4.63
2023-06-01T01:42:19.543Z,4.57
2023-06-01T01:52:34.731Z,5.07
2023-06-01T02:02:36.510Z,5.57
2023-06-01T02:12:38.423Z,5.78
2023-06-01T02:22:39.981Z,4.73
2023-06-01T02:32:41.850Z,5.37
2023-06-01T02:42:43.330Z,4.47
2023-06-01T02:52:45.115Z,7.13
2023-06-01T03:02:47.457Z,5.30
2023-06-01T03:12:49.177Z,7.68
2023-06-01T03:22:50.738Z,8.07
2023-06-01T03:32:52.490Z,7.33
2023-06-01T03:42:54.507Z,7.57
2023-06-01T03:52:56.188Z,6.38
2023-06-01T04:02:59.868Z,8.03
2023-06-01T04:13:01.713Z,7.17
2023-06-01T04:23:03.222Z,8.57
2023-06-01T04:33:04.675Z,7.63
2023-06-01T04:43:08.209Z,6.80
2023-06-01T04:53:09.722Z,6.88
2023-06-01T05:03:12.185Z,4.55
2023-06-01T05:13:13.834Z,5.90
2023-06-01T05:23:15.301Z,6.97
2023-06-01T05:33:16.817Z,7.18
2023-06-01T05:43:18.227Z,7.40
2023-06-01T05:53:19.844Z,6.50
2023-06-01T06:03:23.690Z,6.88
2023-06-01T06:13:25.760Z,7.40
2023-06-01T06:23:28.351Z,8.83
2023-06-01T06:33:29.982Z,13.32
2023-06-01T06:43:31.456Z,7.57
2023-06-01T06:53:34.181Z,6.90
2023-06-01T07:03:35.788Z,7.00
2023-06-01T07:13:37.521Z,5.57
2023-06-01T07:23:42.196Z,6.83
2023-06-01T07:33:44.121Z,5.90
2023-06-01T07:43:46.807Z,6.88
2023-06-01T07:53:48.382Z,5.47
2023-06-01T08:03:50.208Z,4.83
2023-06-01T08:13:51.728Z,6.40
2023-06-01T08:23:56.242Z,6.20
2023-06-01T08:33:57.824Z,6.20
2023-06-01T08:44:03.493Z,5.50
2023-06-01T08:54:06.585Z,6.47
2023-06-01T09:04:10.564Z,5.93
2023-06-01T09:14:23.229Z,5.83
2023-06-01T09:24:25.269Z,5.90
2023-06-01T09:34:27.120Z,5.40
2023-06-01T09:44:30.780Z,5.13
2023-06-01T09:54:34.602Z,6.05
2023-06-01T10:04:39.852Z,4.50
2023-06-01T10:14:41.291Z,6.03
2023-06-01T10:24:44.043Z,4.80
2023-06-01T10:34:46.273Z,5.50
2023-06-01T10:44:49.535Z,6.00
2023-06-01T10:54:51.088Z,5.47
2023-06-01T11:04:52.996Z,5.22
2023-06-01T11:15:12.738Z,5.77
2023-06-01T11:25:18.923Z,6.30
2023-06-01T11:35:22.189Z,6.60
2023-06-01T11:45:23.747Z,6.53
2023-06-01T11:55:25.488Z,7.03
2023-06-01T12:05:27.810Z,5.97
2023-06-01T12:15:29.594Z,5.88
2023-06-01T12:25:34.242Z,6.33
2023-06-01T12:35:50.096Z,6.10
2023-06-01T12:45:52.080Z,5.32
2023-06-01T12:55:54.011Z,5.97
2023-06-01T13:05:55.795Z,5.70
2023-06-01T13:15:57.478Z,5.22
2023-06-01T13:25:59.183Z,5.97
2023-06-01T13:36:00.964Z,4.87
2023-06-01T13:46:03.119Z,4.40
2023-06-01T13:56:05.545Z,3.78
2023-06-01T14:06:07.544Z,4.80
2023-06-01T14:16:09.068Z,4.37
2023-06-01T14:26:11.709Z,5.30
2023-06-01T14:36:13.446Z,4.30
2023-06-01T14:46:15.028Z,5.53
2023-06-01T14:56:16.519Z,5.00
2023-06-01T15:17:40.292Z,5.30
2023-06-01T15:27:41.928Z,5.17
2023-06-01T15:37:43.334Z,5.05
2023-06-01T15:47:44.941Z,3.90
2023-06-01T15:57:46.455Z,4.60
2023-06-01T16:07:47.935Z,4.25
2023-06-01T16:17:49.549Z,3.80
2023-06-01T16:27:51.648Z,4.40
2023-06-01T16:37:53.413Z,3.33
2023-06-01T16:47:54.933Z,4.87
2023-06-01T16:57:56.708Z,4.30
2023-06-01T17:07:58.132Z,4.63
2023-06-01T17:17:59.615Z,4.28
2023-06-01T17:28:01.310Z,3.83
2023-06-01T17:38:02.927Z,4.07
2023-06-01T17:48:04.897Z,4.60
2023-06-01T17:58:06.523Z,4.50
2023-06-01T18:08:09.136Z,3.67
2023-06-01T18:18:10.641Z,4.38
2023-06-01T18:28:12.129Z,3.25
2023-06-01T18:38:13.692Z,3.20
2023-06-01T18:48:15.112Z,4.17
2023-06-01T18:58:17.240Z,3.38
2023-06-01T19:08:23.875Z,4.03
2023-06-01T19:18:25.407Z,2.00
2023-06-01T19:28:26.946Z,4.47
2023-06-01T19:38:31.821Z,4.00
2023-06-01T19:48:33.388Z,3.60
2023-06-01T19:58:34.917Z,3.42
2023-06-01T20:08:36.450Z,3.78
2023-06-01T20:18:39.561Z,3.07
2023-06-01T20:28:47.619Z,3.30
2023-06-01T20:38:49.011Z,3.40
2023-06-01T20:48:57.329Z,3.43
2023-06-01T20:59:03.431Z,3.77
2023-06-01T21:09:07.766Z,3.25
2023-06-01T21:19:09.555Z,3.23
2023-06-01T21:29:11.254Z,4.30
2023-06-01T21:39:12.832Z,2.25
2023-06-01T21:49:16.102Z,3.20
2023-06-01T21:59:17.659Z,3.73
2023-06-01T22:09:19.252Z,4.43
2023-06-01T22:19:21.008Z,3.00
2023-06-01T22:29:22.704Z,2.57
2023-06-01T22:39:25.185Z,1.60
2023-06-01T22:49:26.769Z,3.05
2023-06-01T22:59:28.243Z,2.23
2023-06-01T23:09:29.743Z,2.73
2023-06-01T23:19:34.200Z,2.38
2023-06-01T23:29:37.043Z,3.00
2023-06-01T23:39:38.816Z,3.40
2023-06-01T23:49:40.387Z,3.20
2023-06-01T23:59:41.942Z,3.20
